createdAt,value
2017-07-17T00:00:52.085Z,3.30
2017-07-17T00:03:19.528Z,3.23
2017-07-17T00:05:47.043Z,3.13
2017-07-17T00:08:14.500Z,2.90
2017-07-17T00:10:41.988Z,2.80
2017-07-17T00:13:09.513Z,2.83
2017-07-17T00:15:37.019Z,2.40
2017-07-17T00:18:04.533Z,2.37
2017-07-17T00:20:32.083Z,2.20
2017-07-17T00:22:59.617Z,2.20
2017-07-17T00:25:27.051Z,2.13
2017-07-17T00:27:54.564Z,2.43
2017-07-17T00:30:22.058Z,2.13
2017-07-17T00:32:49.497Z,1.77
2017-07-17T00:35:17.008Z,1.90
2017-07-17T00:37:44.569Z,1.97
2017-07-17T00:40:12.099Z,1.90
2017-07-17T00:42:39.637Z,2.00
2017-07-17T00:45:07.063Z,1.70
2017-07-17T00:47:34.515Z,1.87
2017-07-17T00:50:02.161Z,1.73
2017-07-17T00:52:29.596Z,1.67
2017-07-17T00:54:57.075Z,1.50
2017-07-17T00:57:24.607Z,1.60
2017-07-17T00:59:52.074Z,1.77
2017-07-17T01:02:19.539Z,1.80
2017-07-17T01:04:47.094Z,1.80
2017-07-17T01:07:14.577Z,1.97
2017-07-17T01:09:42.017Z,1.80
2017-07-17T01:12:09.564Z,2.17
2017-07-17T01:14:37.082Z,2.30
2017-07-17T01:17:04.570Z,2.63
2017-07-17T01:19:32.088Z,2.47
2017-07-17T01:21:59.567Z,2.50
2017-07-17T01:24:27.614Z,2.67
2017-07-17T01:26:55.124Z,2.80
2017-07-17T01:29:22.629Z,2.33
2017-07-17T01:31:50.108Z,2.10
2017-07-17T01:34:17.698Z,2.00
2017-07-17T01:36:45.223Z,2.00
2017-07-17T01:39:12.659Z,2.00
2017-07-17T01:41:40.183Z,1.90
2017-07-17T01:44:07.660Z,1.93
2017-07-17T01:46:35.113Z,1.67
2017-07-17T01:49:02.615Z,1.70
2017-07-17T01:51:30.132Z,2.07
2017-07-17T01:53:57.632Z,1.90
2017-07-17T01:56:25.219Z,1.80
2017-07-17T01:58:52.685Z,1.43
2017-07-17T02:01:20.579Z,1.43
2017-07-17T02:03:48.082Z,1.60
2017-07-17T02:06:15.600Z,1.73
2017-07-17T02:08:43.073Z,1.43
2017-07-17T02:11:10.814Z,1.40
2017-07-17T02:13:38.243Z,1.40
2017-07-17T02:16:05.717Z,1.47
2017-07-17T02:18:33.256Z,1.40
2017-07-17T02:21:00.724Z,1.53
2017-07-17T02:23:28.223Z,1.67
2017-07-17T02:25:55.752Z,1.57
2017-07-17T02:28:23.272Z,1.43
2017-07-17T02:30:50.720Z,1.60
2017-07-17T02:33:18.220Z,1.33
2017-07-17T02:35:45.724Z,1.40
2017-07-17T02:38:13.241Z,1.30
2017-07-17T02:40:40.720Z,1.60
2017-07-17T02:43:08.184Z,1.73
2017-07-17T02:45:35.633Z,1.67
2017-07-17T02:48:03.125Z,1.80
2017-07-17T02:50:30.573Z,1.70
2017-07-17T02:52:58.168Z,1.70
2017-07-17T02:55:25.699Z,1.70
2017-07-17T02:57:53.163Z,1.83
2017-07-17T03:00:20.729Z,1.43
2017-07-17T03:02:48.239Z,2.10
2017-07-17T03:05:15.756Z,1.90
2017-07-17T03:07:43.206Z,2.10
2017-07-17T03:10:10.692Z,2.40
2017-07-17T03:12:38.136Z,2.40
2017-07-17T03:15:05.571Z,2.80
2017-07-17T03:17:33.070Z,2.40
2017-07-17T03:20:00.499Z,2.80
2017-07-17T03:22:28.051Z,2.27
2017-07-17T03:24:55.605Z,2.70
2017-07-17T03:27:23.109Z,2.80
2017-07-17T03:29:50.597Z,2.93
2017-07-17T03:32:18.161Z,3.13
2017-07-17T03:34:45.599Z,4.00
2017-07-17T03:37:13.052Z,3.60
2017-07-17T03:39:40.661Z,2.00
2017-07-17T03:42:08.527Z,1.70
2017-07-17T03:44:35.989Z,2.20
2017-07-17T03:47:03.741Z,2.00
2017-07-17T03:49:31.229Z,2.00
2017-07-17T03:51:58.708Z,2.00
2017-07-17T03:54:26.216Z,2.03
2017-07-17T03:56:53.726Z,2.33
2017-07-17T03:59:21.252Z,3.00
2017-07-17T04:01:48.799Z,2.63
2017-07-17T04:04:16.251Z,2.50
2017-07-17T04:06:43.695Z,2.30
2017-07-17T04:09:11.222Z,2.77
2017-07-17T04:11:38.691Z,2.70
2017-07-17T04:14:06.190Z,2.53
2017-07-17T04:16:33.676Z,3.40
2017-07-17T04:19:01.113Z,3.13
2017-07-17T04:21:28.630Z,2.70
2017-07-17T04:23:56.108Z,2.80
2017-07-17T04:26:23.551Z,2.90
2017-07-17T04:28:51.127Z,3.23
2017-07-17T04:31:18.705Z,3.70
2017-07-17T04:33:46.140Z,3.20
2017-07-17T04:36:13.576Z,3.40
2017-07-17T04:38:41.120Z,3.20
2017-07-17T04:41:08.635Z,3.30
2017-07-17T04:43:36.081Z,3.57
2017-07-17T04:46:03.612Z,3.83
2017-07-17T04:48:31.089Z,3.77
2017-07-17T04:50:58.568Z,3.58
2017-07-17T04:53:26.045Z,4.10
2017-07-17T04:57:55.922Z,4.50
2017-07-17T05:00:24.377Z,4.90
2017-07-17T05:02:52.771Z,4.33
2017-07-17T05:05:21.245Z,4.60
2017-07-17T05:07:49.714Z,4.70
2017-07-17T05:10:18.112Z,4.63
2017-07-17T05:12:46.505Z,4.83
2017-07-17T05:17:02.789Z,4.80
2017-07-17T05:19:29.606Z,4.63
2017-07-17T05:21:56.419Z,5.23
2017-07-17T05:24:23.296Z,5.50
2017-07-17T05:26:50.151Z,6.70
2017-07-17T05:29:16.973Z,8.67
2017-07-17T05:31:43.878Z,9.60
2017-07-17T05:34:10.696Z,10.13
2017-07-17T05:36:37.566Z,11.60
2017-07-17T05:39:04.512Z,10.17
2017-07-17T05:41:31.347Z,8.10
2017-07-17T05:43:58.228Z,7.00
2017-07-17T05:46:25.079Z,6.13
2017-07-17T05:48:51.961Z,6.67
2017-07-17T05:51:18.777Z,5.30
2017-07-17T05:53:45.691Z,4.93
2017-07-17T05:56:12.507Z,4.70
2017-07-17T05:58:39.321Z,5.63
2017-07-17T06:01:06.192Z,4.80
2017-07-17T06:03:33.074Z,5.27
2017-07-17T06:05:59.894Z,5.57
2017-07-17T06:08:26.756Z,4.60
2017-07-17T06:10:53.575Z,5.10
2017-07-17T06:13:20.457Z,4.00
2017-07-17T06:15:47.369Z,4.90
2017-07-17T06:18:14.285Z,4.67
2017-07-17T06:20:41.202Z,4.53
2017-07-17T06:23:08.136Z,4.63
2017-07-17T06:25:35.014Z,5.50
2017-07-17T06:28:01.836Z,5.77
2017-07-17T06:30:28.730Z,4.93
2017-07-17T06:32:55.556Z,6.00
2017-07-17T06:35:22.408Z,5.50
2017-07-17T06:37:49.331Z,5.07
2017-07-17T06:40:16.238Z,4.70
2017-07-17T06:42:43.094Z,4.50
2017-07-17T06:45:09.943Z,4.60
2017-07-17T06:47:36.777Z,5.73
2017-07-17T06:50:03.624Z,5.20
2017-07-17T06:52:30.517Z,5.50
2017-07-17T06:54:57.398Z,5.07
2017-07-17T06:57:24.279Z,5.67
2017-07-17T06:59:51.136Z,5.53
2017-07-17T07:02:17.947Z,5.60
2017-07-17T07:04:44.791Z,5.83
2017-07-17T07:07:11.635Z,4.70
2017-07-17T07:09:38.458Z,5.20
2017-07-17T07:12:05.277Z,5.00
2017-07-17T07:16:00.196Z,5.15
2017-07-17T07:18:27.755Z,5.47
2017-07-17T07:20:55.277Z,5.97
2017-07-17T07:23:22.938Z,5.70
2017-07-17T07:25:50.472Z,5.73
2017-07-17T07:28:18.033Z,6.00
2017-07-17T07:30:45.760Z,5.67
2017-07-17T07:33:13.316Z,6.97
2017-07-17T07:35:40.977Z,5.77
2017-07-17T07:38:08.625Z,6.03
2017-07-17T07:40:36.158Z,6.30
2017-07-17T07:43:03.717Z,6.27
2017-07-17T07:45:31.370Z,6.20
2017-07-17T07:47:58.969Z,5.60
2017-07-17T07:50:26.495Z,7.10
2017-07-17T07:52:54.060Z,6.30
2017-07-17T07:55:21.650Z,6.60
2017-07-17T07:57:48.498Z,6.40
2017-07-17T08:00:15.341Z,6.20
2017-07-17T08:02:42.152Z,5.77
2017-07-17T08:05:09.040Z,7.07
2017-07-17T08:07:35.905Z,6.40
2017-07-17T08:10:02.792Z,5.40
2017-07-17T08:12:29.606Z,6.50
2017-07-17T08:14:56.448Z,6.13
2017-07-17T08:17:23.303Z,6.13
2017-07-17T08:19:50.147Z,5.60
2017-07-17T08:22:16.997Z,5.80
2017-07-17T08:24:43.963Z,6.40
2017-07-17T08:27:10.909Z,6.00
2017-07-17T08:29:37.855Z,5.40
2017-07-17T08:32:04.669Z,5.97
2017-07-17T08:34:31.643Z,5.60
2017-07-17T08:36:58.525Z,5.20
2017-07-17T08:39:25.382Z,5.67
2017-07-17T08:41:52.232Z,5.43
2017-07-17T08:44:19.107Z,5.27
2017-07-17T08:46:45.961Z,5.80
2017-07-17T08:49:12.773Z,5.70
2017-07-17T08:51:39.634Z,4.77
2017-07-17T08:54:06.488Z,5.50
2017-07-17T08:56:33.373Z,5.50
2017-07-17T08:59:00.243Z,5.10
2017-07-17T09:01:27.122Z,5.27
2017-07-17T09:03:53.935Z,5.60
2017-07-17T09:06:20.845Z,5.40
2017-07-17T09:08:47.691Z,5.83
2017-07-17T09:11:14.542Z,5.07
2017-07-17T09:13:41.459Z,5.57
2017-07-17T09:16:08.387Z,6.10
2017-07-17T09:18:35.236Z,5.40
2017-07-17T09:21:02.115Z,6.10
2017-07-17T09:23:28.964Z,6.50
2017-07-17T09:25:55.779Z,6.57
2017-07-17T09:28:22.645Z,6.30
2017-07-17T09:30:49.461Z,5.80
2017-07-17T09:33:16.277Z,6.53
2017-07-17T09:35:43.145Z,6.47
2017-07-17T09:38:09.960Z,5.87
2017-07-17T09:40:36.840Z,6.20
2017-07-17T09:43:03.690Z,5.67
2017-07-17T09:45:30.530Z,6.20
2017-07-17T09:47:57.518Z,6.70
2017-07-17T09:50:24.359Z,6.70
2017-07-17T09:52:51.175Z,5.87
2017-07-17T09:55:18.022Z,6.80
2017-07-17T09:57:44.865Z,6.30
2017-07-17T10:00:12.580Z,6.60
2017-07-17T10:02:39.485Z,6.40
2017-07-17T10:05:06.377Z,6.67
2017-07-17T10:07:33.251Z,6.40
2017-07-17T10:10:00.120Z,6.40
2017-07-17T10:12:26.984Z,6.07
2017-07-17T10:14:53.859Z,6.80
2017-07-17T10:17:20.773Z,6.40
2017-07-17T10:19:47.661Z,6.60
2017-07-17T10:22:14.510Z,6.97
2017-07-17T10:24:41.317Z,6.43
2017-07-17T10:27:08.171Z,7.00
2017-07-17T10:29:34.989Z,7.20
2017-07-17T10:32:01.861Z,7.40
2017-07-17T10:34:28.722Z,7.10
2017-07-17T10:36:55.533Z,6.53
2017-07-17T10:39:22.347Z,7.10
2017-07-17T10:41:49.231Z,6.70
2017-07-17T10:44:16.076Z,7.40
2017-07-17T10:46:42.882Z,6.93
2017-07-17T10:49:09.720Z,5.90
2017-07-17T10:51:36.565Z,6.80
2017-07-17T10:54:03.375Z,6.73
2017-07-17T10:56:30.268Z,7.53
2017-07-17T10:58:57.203Z,7.40
2017-07-17T11:01:24.056Z,6.90
2017-07-17T11:03:50.969Z,7.87
2017-07-17T11:06:17.838Z,6.10
2017-07-17T11:08:44.656Z,7.90
2017-07-17T11:11:11.543Z,7.67
2017-07-17T11:13:38.387Z,7.53
2017-07-17T11:16:05.215Z,7.70
2017-07-17T11:18:32.110Z,8.10
2017-07-17T11:20:58.943Z,7.70
2017-07-17T11:23:25.760Z,7.10
2017-07-17T11:25:52.613Z,7.57
2017-07-17T11:28:19.466Z,7.23
2017-07-17T11:30:46.281Z,8.30
2017-07-17T11:33:13.182Z,8.47
2017-07-17T11:35:40.105Z,8.13
2017-07-17T11:38:06.945Z,7.77
2017-07-17T11:40:33.855Z,7.37
2017-07-17T11:43:00.679Z,8.20
2017-07-17T11:45:27.494Z,7.77
2017-07-17T12:00:24.553Z,7.50
2017-07-17T12:02:51.362Z,8.77
2017-07-17T12:07:44.263Z,8.20
2017-07-17T12:10:11.109Z,7.87
2017-07-17T12:12:37.996Z,8.40
2017-07-17T12:15:04.940Z,8.40
2017-07-17T12:17:31.751Z,8.03
2017-07-17T12:19:58.585Z,8.20
2017-07-17T12:22:25.437Z,8.50
2017-07-17T12:24:52.244Z,7.97
2017-07-17T12:27:19.047Z,8.40
2017-07-17T12:29:45.891Z,7.87
2017-07-17T12:32:12.699Z,7.20
2017-07-17T12:34:39.503Z,7.37
2017-07-17T12:37:06.344Z,8.70
2017-07-17T12:39:33.226Z,8.40
2017-07-17T12:42:00.050Z,7.80
2017-07-17T12:44:26.931Z,8.20
2017-07-17T12:46:53.743Z,8.53
2017-07-17T12:49:20.547Z,8.60
2017-07-17T12:51:47.394Z,7.73
2017-07-17T12:54:14.206Z,8.27
2017-07-17T12:56:41.089Z,8.33
2017-07-17T12:59:08.006Z,8.30
2017-07-17T13:01:34.880Z,8.50
2017-07-17T13:04:01.757Z,8.60
2017-07-17T13:06:28.711Z,8.43
2017-07-17T13:08:55.555Z,9.20
2017-07-17T13:11:22.399Z,8.63
2017-07-17T13:13:49.247Z,8.13
2017-07-17T13:16:16.085Z,8.40
2017-07-17T13:18:42.971Z,9.07
2017-07-17T13:21:09.822Z,8.47
2017-07-17T13:23:36.721Z,8.63
2017-07-17T13:26:04.119Z,8.37
2017-07-17T13:28:31.010Z,9.43
2017-07-17T13:30:57.857Z,9.07
2017-07-17T13:33:24.737Z,9.23
2017-07-17T13:35:51.607Z,8.40
2017-07-17T13:38:18.416Z,8.57
2017-07-17T13:40:45.231Z,8.30
2017-07-17T13:43:12.167Z,8.90
2017-07-17T13:45:39.120Z,8.70
2017-07-17T13:48:05.949Z,8.70
2017-07-17T13:50:32.826Z,9.00
2017-07-17T13:52:59.633Z,9.00
2017-07-17T13:55:26.469Z,9.37
2017-07-17T13:57:53.328Z,9.03
2017-07-17T14:00:20.176Z,9.40
2017-07-17T14:02:47.009Z,9.10
2017-07-17T14:05:13.870Z,10.10
2017-07-17T14:07:40.689Z,9.23
2017-07-17T14:10:07.536Z,9.47
2017-07-17T14:12:34.419Z,9.40
2017-07-17T14:15:01.232Z,9.30
2017-07-17T14:17:28.057Z,10.17
2017-07-17T14:19:54.919Z,9.43
2017-07-17T14:22:21.760Z,9.50
2017-07-17T14:24:48.615Z,9.20
2017-07-17T14:27:15.499Z,9.73
2017-07-17T14:29:42.378Z,9.87
2017-07-17T14:32:09.201Z,10.13
2017-07-17T14:34:36.133Z,9.77
2017-07-17T14:37:02.951Z,10.50
2017-07-17T14:39:29.772Z,9.93
2017-07-17T14:41:56.698Z,9.90
2017-07-17T14:44:23.545Z,9.10
2017-07-17T14:46:50.365Z,9.00
2017-07-17T14:49:17.213Z,9.53
2017-07-17T14:51:44.044Z,10.80
2017-07-17T14:54:11.904Z,9.90
2017-07-17T14:56:38.865Z,9.60
2017-07-17T14:59:05.775Z,10.27
2017-07-17T15:01:33.778Z,9.80
2017-07-17T15:04:00.689Z,9.37
2017-07-17T15:06:27.538Z,9.63
2017-07-17T15:08:54.345Z,9.87
2017-07-17T15:11:21.210Z,9.33
2017-07-17T15:13:48.016Z,9.97
2017-07-17T15:16:14.864Z,9.60
2017-07-17T15:18:41.727Z,9.10
2017-07-17T15:21:08.707Z,9.27
2017-07-17T15:23:35.519Z,8.87
2017-07-17T15:26:02.384Z,9.70
2017-07-17T15:28:29.209Z,8.20
2017-07-17T15:30:56.025Z,9.80
2017-07-17T15:33:22.883Z,9.80
2017-07-17T15:35:49.686Z,9.43
2017-07-17T15:38:16.575Z,9.83
2017-07-17T15:40:43.423Z,8.87
2017-07-17T15:43:10.265Z,10.30
2017-07-17T15:45:37.073Z,9.77
2017-07-17T15:48:03.921Z,8.83
2017-07-17T15:50:30.755Z,9.57
2017-07-17T15:52:57.603Z,9.30
2017-07-17T15:55:24.481Z,9.10
2017-07-17T15:57:51.333Z,9.60
2017-07-17T16:00:18.212Z,8.90
2017-07-17T16:02:45.109Z,9.23
2017-07-17T16:05:11.927Z,9.03
2017-07-17T16:07:38.816Z,9.00
2017-07-17T16:10:05.756Z,9.27
2017-07-17T16:12:32.598Z,9.37
2017-07-17T16:14:59.414Z,9.00
2017-07-17T16:17:26.268Z,9.90
2017-07-17T16:19:53.096Z,9.70
2017-07-17T16:22:19.986Z,9.23
2017-07-17T16:24:46.844Z,10.10
2017-07-17T16:27:13.765Z,10.00
2017-07-17T16:29:40.645Z,9.97
2017-07-17T16:32:07.571Z,10.33
2017-07-17T16:34:34.643Z,9.67
2017-07-17T16:37:01.488Z,9.77
2017-07-17T16:39:28.351Z,9.40
2017-07-17T16:41:55.162Z,8.73
2017-07-17T16:44:22.048Z,8.77
2017-07-17T16:46:48.941Z,9.40
2017-07-17T16:49:15.770Z,10.27
2017-07-17T16:51:42.583Z,9.43
2017-07-17T16:54:09.513Z,9.50
2017-07-17T16:56:36.366Z,10.10
2017-07-17T16:59:03.203Z,11.13
2017-07-17T17:01:30.111Z,9.80
2017-07-17T17:03:56.971Z,9.10
2017-07-17T17:06:23.816Z,15.40
2017-07-17T17:08:50.667Z,12.73
2017-07-17T17:11:17.495Z,22.20
2017-07-17T17:13:44.357Z,11.53
2017-07-17T17:16:11.926Z,9.23
2017-07-17T17:18:38.771Z,10.67
2017-07-17T17:21:05.593Z,8.80
2017-07-17T17:23:32.721Z,9.43
2017-07-17T17:25:59.637Z,10.73
2017-07-17T17:28:26.544Z,9.27
2017-07-17T17:30:53.411Z,10.47
2017-07-17T17:33:20.232Z,9.73
2017-07-17T17:35:47.118Z,9.90
2017-07-17T17:38:14.057Z,10.40
2017-07-17T17:40:40.910Z,9.87
2017-07-17T17:43:07.812Z,8.60
2017-07-17T17:45:34.735Z,9.37
2017-07-17T17:48:01.563Z,9.57
2017-07-17T17:50:28.379Z,9.60
2017-07-17T17:52:55.230Z,10.20
2017-07-17T17:55:22.088Z,9.53
2017-07-17T17:57:48.915Z,10.50
2017-07-17T18:00:15.810Z,11.03
2017-07-17T18:02:42.630Z,10.67
2017-07-17T18:05:09.491Z,11.70
2017-07-17T18:07:36.383Z,11.13
2017-07-17T18:10:03.217Z,10.30
2017-07-17T18:12:30.093Z,11.50
2017-07-17T18:14:56.985Z,10.03
2017-07-17T18:17:23.909Z,10.03
2017-07-17T18:19:50.756Z,9.17
2017-07-17T18:22:17.631Z,11.20
2017-07-17T18:24:44.510Z,9.37
2017-07-17T18:27:11.383Z,9.70
2017-07-17T18:29:38.267Z,9.20
2017-07-17T18:32:05.095Z,10.40
2017-07-17T18:34:31.944Z,9.20
2017-07-17T18:36:58.909Z,8.60
2017-07-17T18:39:25.719Z,9.20
2017-07-17T18:41:52.587Z,9.33
2017-07-17T18:44:19.465Z,9.53
2017-07-17T18:46:46.283Z,9.23
2017-07-17T18:49:13.135Z,9.20
2017-07-17T18:51:40.112Z,8.97
2017-07-17T18:54:06.946Z,9.17
2017-07-17T18:56:33.794Z,8.47
2017-07-17T18:59:00.653Z,8.30
2017-07-17T19:01:27.497Z,7.73
2017-07-17T19:03:54.426Z,7.50
2017-07-17T19:06:21.296Z,8.40
2017-07-17T19:08:48.184Z,6.97
2017-07-17T19:11:15.048Z,8.47
2017-07-17T19:13:41.960Z,8.57
2017-07-17T19:16:08.839Z,8.20
2017-07-17T19:18:35.790Z,7.47
2017-07-17T19:21:02.724Z,7.33
2017-07-17T19:23:29.741Z,7.30
2017-07-17T19:25:56.615Z,7.93
2017-07-17T19:28:23.541Z,8.60
2017-07-17T19:30:50.351Z,8.00
2017-07-17T19:33:17.221Z,8.00
2017-07-17T19:35:44.132Z,7.50
2017-07-17T19:38:10.990Z,7.97
2017-07-17T19:40:37.807Z,8.60
2017-07-17T19:43:04.652Z,8.20
2017-07-17T19:45:31.555Z,8.43
2017-07-17T19:47:58.380Z,8.33
2017-07-17T19:50:25.289Z,8.10
2017-07-17T19:52:52.108Z,9.10
2017-07-17T19:55:18.951Z,8.73
2017-07-17T19:57:46.287Z,8.67
2017-07-17T20:00:13.121Z,9.60
2017-07-17T20:02:39.946Z,9.30
2017-07-17T20:05:07.684Z,9.00
2017-07-17T20:07:34.546Z,8.10
2017-07-17T20:10:01.363Z,8.33
2017-07-17T20:12:28.256Z,8.80
2017-07-17T20:14:55.604Z,8.83
2017-07-17T20:17:22.419Z,8.80
2017-07-17T20:19:49.294Z,8.63
2017-07-17T20:22:16.164Z,8.10
2017-07-17T20:24:43.592Z,7.80
2017-07-17T20:27:10.528Z,8.07
2017-07-17T20:29:37.346Z,7.63
2017-07-17T20:32:04.164Z,8.60
2017-07-17T20:34:31.064Z,9.00
2017-07-17T20:36:57.887Z,9.23
2017-07-17T20:39:24.734Z,8.93
2017-07-17T20:41:51.655Z,9.03
2017-07-17T20:44:18.470Z,9.00
2017-07-17T20:46:45.316Z,8.53
2017-07-17T20:49:12.190Z,7.77
2017-07-17T20:51:39.006Z,7.90
2017-07-17T20:54:05.886Z,8.67
2017-07-17T20:56:33.154Z,7.70
2017-07-17T20:58:59.995Z,7.40
2017-07-17T21:01:26.881Z,7.30
2017-07-17T21:03:53.727Z,7.30
2017-07-17T21:06:20.554Z,6.87
2017-07-17T21:08:47.432Z,6.83
2017-07-17T21:11:14.307Z,6.87
2017-07-17T21:13:41.136Z,7.40
2017-07-17T21:16:07.965Z,6.30
2017-07-17T21:18:34.943Z,7.13
2017-07-17T21:21:01.758Z,6.83
2017-07-17T21:23:28.587Z,7.20
2017-07-17T21:25:55.503Z,7.00
2017-07-17T21:28:23.324Z,7.03
2017-07-17T21:30:50.211Z,7.00
2017-07-17T21:33:17.122Z,6.87
2017-07-17T21:35:46.131Z,6.07
2017-07-17T21:38:14.628Z,7.00
2017-07-17T21:40:45.068Z,6.97
2017-07-17T21:43:13.705Z,6.80
2017-07-17T21:45:48.175Z,7.20
2017-07-17T21:48:16.409Z,6.57
2017-07-17T21:50:45.455Z,7.07
2017-07-17T21:53:12.594Z,6.67
2017-07-17T21:55:39.666Z,6.97
2017-07-17T21:58:08.047Z,7.50
2017-07-17T22:00:35.880Z,7.30
2017-07-17T22:03:02.775Z,7.27
2017-07-17T22:05:30.542Z,7.27
2017-07-17T22:07:58.891Z,7.10
2017-07-17T22:10:26.362Z,7.27
2017-07-17T22:12:54.839Z,6.77
2017-07-17T22:15:23.771Z,7.40
2017-07-17T22:17:55.157Z,7.10
2017-07-17T22:20:23.873Z,6.90
2017-07-17T22:22:50.714Z,6.13
2017-07-17T22:25:17.903Z,6.20
2017-07-17T22:27:44.832Z,7.57
2017-07-17T22:30:12.254Z,7.60
2017-07-17T22:32:40.072Z,7.50
2017-07-17T22:35:07.967Z,7.80
2017-07-17T22:39:10.228Z,7.00
2017-07-17T22:41:37.895Z,6.70
2017-07-17T22:44:06.756Z,6.90
2017-07-17T22:46:34.620Z,6.70
2017-07-17T22:49:02.479Z,6.90
2017-07-17T22:51:29.537Z,6.67
2017-07-17T22:53:56.553Z,6.17
2017-07-17T22:56:25.360Z,6.63
2017-07-17T22:58:52.340Z,7.70
2017-07-17T23:01:25.328Z,7.63
2017-07-17T23:03:52.879Z,7.20
2017-07-17T23:06:21.689Z,8.30
2017-07-17T23:08:49.358Z,7.27
2017-07-17T23:11:17.296Z,7.63
2017-07-17T23:13:44.338Z,7.23
2017-07-17T23:16:21.874Z,6.87
2017-07-17T23:18:49.418Z,7.93
2017-07-17T23:21:22.108Z,7.30
2017-07-17T23:23:50.412Z,7.10
2017-07-17T23:26:23.880Z,6.53
2017-07-17T23:28:54.192Z,7.27
2017-07-17T23:31:28.536Z,7.67
2017-07-17T23:33:58.286Z,7.83
2017-07-17T23:36:29.311Z,6.03
2017-07-17T23:38:58.402Z,7.30
2017-07-17T23:41:26.259Z,7.20
2017-07-17T23:43:53.564Z,7.23
2017-07-17T23:46:23.397Z,6.90
2017-07-17T23:48:54.675Z,6.47
2017-07-17T23:51:23.808Z,7.33
2017-07-17T23:53:59.103Z,7.10
2017-07-17T23:56:27.923Z,7.10
2017-07-17T23:58:55.581Z,6.97
